Terminal Aerodrome Forecast
Issued by NWS

Home | Current Version | Previous Version | Text Only | Print | Product List | Glossary On
Versions: 1 2 3 4 5 6 7 8 9 10 11 12 13 14 15 16 17 18 19 20 21 22 23 24 25
000
FTUS46 KMFR 270402 AAB
TAFOTH
TAF AMD
KOTH 270402Z 2704/2724 VRB03KT P6SM OVC010
     FM271000 35004KT 3SM BR OVC005
     FM271700 29003KT P6SM OVC008
     FM271900 29007KT P6SM SCT010=

USA.gov is the U.S. government's official web portal to all federal, state and local government web resources and services.